createdAt,value
2023-04-02T00:00:50.145Z,0.00
2023-04-02T00:01:50.134Z,0.00
2023-04-02T00:02:50.201Z,0.00
2023-04-02T00:03:50.108Z,0.00
2023-04-02T00:04:50.081Z,0.00
2023-04-02T00:05:50.077Z,0.00
2023-04-02T00:06:50.161Z,0.00
2023-04-02T00:07:50.062Z,0.00
2023-04-02T00:08:50.071Z,0.00
2023-04-02T00:09:50.037Z,0.00
2023-04-02T00:10:50.025Z,0.00
2023-04-02T00:11:50.026Z,0.00
2023-04-02T00:12:50.018Z,0.00
2023-04-02T00:13:49.982Z,0.00
2023-04-02T00:14:49.967Z,0.00
2023-04-02T00:15:49.978Z,0.00
2023-04-02T00:16:49.968Z,0.00
2023-04-02T00:17:49.969Z,0.00
2023-04-02T00:18:49.934Z,0.00
2023-04-02T00:19:49.931Z,0.00
2023-04-02T00:20:50.836Z,0.00
2023-04-02T00:21:49.950Z,0.00
2023-04-02T00:22:49.912Z,0.00
2023-04-02T00:23:49.877Z,0.00
2023-04-02T00:24:49.873Z,0.00
2023-04-02T00:25:49.876Z,0.00
2023-04-02T00:26:49.853Z,0.00
2023-04-02T00:27:49.850Z,0.00
2023-04-02T00:28:49.817Z,0.00
2023-04-02T00:29:49.810Z,0.00
2023-04-02T00:30:49.801Z,0.00
2023-04-02T00:31:49.850Z,0.00
2023-04-02T00:32:49.809Z,0.00
2023-04-02T00:33:49.786Z,0.00
2023-04-02T00:34:49.750Z,0.00
2023-04-02T00:35:49.803Z,0.00
2023-04-02T00:36:49.754Z,0.00
2023-04-02T00:37:49.728Z,0.00
2023-04-02T00:38:49.719Z,0.00
2023-04-02T00:39:49.706Z,0.00
2023-04-02T00:40:49.721Z,0.00
2023-04-02T00:41:49.698Z,0.00
2023-04-02T00:42:49.727Z,0.00
2023-04-02T00:43:49.668Z,0.00
2023-04-02T00:44:49.656Z,0.00
2023-04-02T00:45:49.658Z,0.00
2023-04-02T00:46:49.797Z,0.00
2023-04-02T00:47:49.657Z,0.00
2023-04-02T00:48:49.601Z,0.00
2023-04-02T00:49:49.604Z,0.00
2023-04-02T00:50:49.597Z,0.00
2023-04-02T00:51:49.575Z,0.00
2023-04-02T00:52:49.598Z,0.00
2023-04-02T00:53:49.574Z,0.00
2023-04-02T00:54:49.551Z,0.00
2023-04-02T00:55:49.537Z,0.00
2023-04-02T00:56:49.538Z,0.00
2023-04-02T00:57:49.531Z,0.00
2023-04-02T00:58:49.497Z,0.00
2023-04-02T00:59:49.510Z,0.00
2023-04-02T01:00:49.496Z,0.00
2023-04-02T01:01:49.502Z,0.00
2023-04-02T01:02:49.535Z,0.00
2023-04-02T01:03:49.517Z,0.00
2023-04-02T01:04:49.439Z,0.00
2023-04-02T01:05:49.431Z,0.00
2023-04-02T01:06:50.066Z,0.00
2023-04-02T01:07:49.401Z,0.00
2023-04-02T01:08:49.395Z,0.00
2023-04-02T01:09:49.395Z,0.00
2023-04-02T01:10:49.413Z,0.00
2023-04-02T01:11:49.364Z,0.00
2023-04-02T01:12:49.353Z,0.00
2023-04-02T01:13:49.339Z,0.00
2023-04-02T01:14:49.348Z,0.00
2023-04-02T01:15:49.352Z,0.00
2023-04-02T01:16:49.304Z,0.00
2023-04-02T01:17:49.357Z,0.00
2023-04-02T01:18:49.286Z,0.00
2023-04-02T01:19:49.270Z,0.00
2023-04-02T01:20:49.293Z,0.00
2023-04-02T01:21:49.269Z,0.00
2023-04-02T01:22:49.239Z,0.00
2023-04-02T01:23:49.236Z,0.00
2023-04-02T01:24:49.220Z,0.00
2023-04-02T01:25:49.208Z,0.00
2023-04-02T01:26:49.232Z,0.00
2023-04-02T01:27:49.212Z,0.00
2023-04-02T01:28:49.168Z,0.00
2023-04-02T01:29:49.158Z,0.00
2023-04-02T01:30:49.150Z,0.00
2023-04-02T01:31:49.280Z,0.00
2023-04-02T01:32:49.190Z,0.00
2023-04-02T01:33:49.121Z,0.00
2023-04-02T01:34:49.122Z,0.00
2023-04-02T01:35:49.132Z,0.00
2023-04-02T01:36:49.093Z,0.00
2023-04-02T01:37:49.085Z,0.00
2023-04-02T01:38:49.061Z,0.00
2023-04-02T01:39:49.061Z,0.00
2023-04-02T01:40:49.036Z,0.00
2023-04-02T01:41:49.029Z,0.00
2023-04-02T01:42:49.023Z,0.00
2023-04-02T01:43:49.036Z,0.00
2023-04-02T01:44:49.003Z,0.00
2023-04-02T01:45:48.996Z,0.00
2023-04-02T01:46:49.001Z,0.00
2023-04-02T01:47:49.028Z,0.00
2023-04-02T01:48:48.998Z,0.00
2023-04-02T01:49:48.946Z,0.00
2023-04-02T01:50:48.925Z,0.00
2023-04-02T01:51:48.922Z,0.00
2023-04-02T01:52:48.904Z,0.00
2023-04-02T01:53:48.920Z,0.00
2023-04-02T01:54:48.888Z,0.00
2023-04-02T01:55:48.948Z,0.00
2023-04-02T01:56:48.892Z,0.00
2023-04-02T01:57:48.855Z,0.00
2023-04-02T01:58:48.836Z,0.00
2023-04-02T01:59:48.928Z,0.00
2023-04-02T02:00:48.860Z,0.00
2023-04-02T02:01:48.834Z,0.00
2023-04-02T02:02:48.820Z,0.00
2023-04-02T02:03:48.789Z,0.00
2023-04-02T02:04:48.771Z,0.00
2023-04-02T02:05:48.856Z,0.00
2023-04-02T02:06:48.853Z,0.00
2023-04-02T02:07:48.773Z,0.00
2023-04-02T02:08:48.731Z,0.00
2023-04-02T02:09:48.718Z,0.00
2023-04-02T02:10:48.706Z,0.00
2023-04-02T02:11:48.699Z,0.00
2023-04-02T02:12:48.692Z,0.00
2023-04-02T02:13:48.687Z,0.00
2023-04-02T02:14:48.681Z,0.00
2023-04-02T02:16:59.549Z,0.00
2023-04-02T02:18:00.484Z,0.00
2023-04-02T02:19:00.439Z,0.00
2023-04-02T02:20:00.434Z,0.00
2023-04-02T02:21:00.420Z,0.00
2023-04-02T02:22:00.395Z,0.00
2023-04-02T02:23:00.402Z,0.00
2023-04-02T02:24:00.393Z,0.00
2023-04-02T02:25:00.381Z,0.00
2023-04-02T02:26:00.407Z,0.00
2023-04-02T02:27:00.351Z,0.00
2023-04-02T02:28:00.420Z,0.00
2023-04-02T02:29:00.334Z,0.00
2023-04-02T02:30:00.330Z,0.00
2023-04-02T02:31:00.316Z,0.00
2023-04-02T02:32:00.336Z,0.00
2023-04-02T02:33:00.333Z,0.00
2023-04-02T02:34:00.274Z,0.00
2023-04-02T02:35:00.283Z,0.00
2023-04-02T02:36:00.324Z,0.00
2023-04-02T02:37:00.251Z,0.00
2023-04-02T02:38:00.236Z,0.00
2023-04-02T02:39:00.253Z,0.00
2023-04-02T02:40:00.217Z,0.00
2023-04-02T02:41:00.208Z,0.00
2023-04-02T02:42:00.198Z,0.00
2023-04-02T02:43:00.196Z,0.00
2023-04-02T02:44:00.173Z,0.00
2023-04-02T02:45:00.694Z,0.00
2023-04-02T02:46:00.225Z,0.00
2023-04-02T02:47:00.197Z,0.00
2023-04-02T02:48:00.216Z,0.00
2023-04-02T02:49:00.158Z,0.00
2023-04-02T02:50:00.125Z,0.00
2023-04-02T02:51:00.123Z,0.00
2023-04-02T02:52:00.152Z,0.00
2023-04-02T02:53:00.114Z,0.00
2023-04-02T02:54:00.116Z,0.00
2023-04-02T02:55:00.120Z,0.00
2023-04-02T02:56:00.106Z,0.00
2023-04-02T02:57:00.111Z,0.00
2023-04-02T02:58:00.044Z,0.00
2023-04-02T02:59:00.033Z,0.00
2023-04-02T02:59:59.997Z,0.00
2023-04-02T03:01:00.046Z,0.00
2023-04-02T03:01:59.996Z,0.00
2023-04-02T03:03:00.101Z,0.00
2023-04-02T03:04:00.126Z,0.00
2023-04-02T03:04:59.950Z,0.00
2023-04-02T03:05:59.955Z,0.00
2023-04-02T03:06:59.999Z,0.00
2023-04-02T03:07:59.925Z,0.00
2023-04-02T03:08:59.946Z,0.00
2023-04-02T03:09:59.920Z,0.00
2023-04-02T03:10:59.919Z,0.00
2023-04-02T03:11:59.890Z,0.00
2023-04-02T03:12:59.872Z,0.00
2023-04-02T03:13:59.854Z,0.00
2023-04-02T03:14:59.851Z,0.00
2023-04-02T03:15:59.848Z,0.00
2023-04-02T03:16:59.831Z,0.00
2023-04-02T03:17:59.839Z,0.00
2023-04-02T03:18:59.811Z,0.00
2023-04-02T03:19:59.789Z,0.00
2023-04-02T03:20:59.787Z,0.00
2023-04-02T03:21:59.830Z,0.00
2023-04-02T03:22:59.768Z,0.00
2023-04-02T03:23:59.785Z,0.00
2023-04-02T03:24:59.772Z,0.00
2023-04-02T03:25:59.729Z,0.00
2023-04-02T03:26:59.752Z,0.00
2023-04-02T03:27:59.722Z,0.00
2023-04-02T03:28:59.728Z,0.00
2023-04-02T03:29:59.688Z,0.00
2023-04-02T03:30:59.701Z,0.00
2023-04-02T03:31:59.700Z,0.00
2023-04-02T03:32:59.673Z,0.00
2023-04-02T03:33:59.657Z,0.00
2023-04-02T03:34:59.668Z,0.00
2023-04-02T03:35:59.710Z,0.00
2023-04-02T03:36:59.624Z,0.00
2023-04-02T03:37:59.607Z,0.00
2023-04-02T03:38:59.603Z,0.00
2023-04-02T03:39:59.608Z,0.00
2023-04-02T03:40:59.577Z,0.00
2023-04-02T03:41:59.588Z,0.00
2023-04-02T03:42:59.557Z,0.00
2023-04-02T03:43:59.540Z,0.00
2023-04-02T03:44:59.544Z,0.00
2023-04-02T03:45:59.557Z,0.00
2023-04-02T03:46:59.518Z,0.00
2023-04-02T03:47:59.542Z,0.00
2023-04-02T03:48:59.494Z,0.00
2023-04-02T03:49:59.613Z,0.00
2023-04-02T03:50:59.477Z,0.00
2023-04-02T03:51:59.480Z,0.00
2023-04-02T03:52:59.453Z,0.00
2023-04-02T03:53:59.452Z,0.00
2023-04-02T03:54:59.443Z,0.00
2023-04-02T03:55:59.416Z,0.00
2023-04-02T03:56:59.427Z,0.00
2023-04-02T03:57:59.393Z,0.00
2023-04-02T03:58:59.394Z,0.00
2023-04-02T03:59:59.392Z,0.00
2023-04-02T04:00:59.389Z,0.00
2023-04-02T04:01:59.429Z,0.00
2023-04-02T04:02:59.425Z,0.00
2023-04-02T04:03:59.371Z,0.00
2023-04-02T04:04:59.334Z,0.00
2023-04-02T04:05:59.311Z,0.00
2023-04-02T04:06:59.317Z,0.00
2023-04-02T04:07:59.321Z,0.00
2023-04-02T04:08:59.289Z,0.00
2023-04-02T04:09:59.289Z,0.00
2023-04-02T04:10:59.306Z,0.00
2023-04-02T04:11:59.256Z,0.00
2023-04-02T04:12:59.241Z,0.00
2023-04-02T04:13:59.228Z,0.00
2023-04-02T04:14:59.262Z,0.00
2023-04-02T04:15:59.233Z,0.00
2023-04-02T04:16:59.247Z,0.00
2023-04-02T04:17:59.239Z,0.00
2023-04-02T04:18:59.177Z,0.00
2023-04-02T04:19:59.235Z,0.00
2023-04-02T04:20:59.174Z,0.00
2023-04-02T04:21:59.146Z,0.00
2023-04-02T04:22:59.139Z,0.00
2023-04-02T04:23:59.117Z,0.00
2023-04-02T04:24:59.106Z,0.00
2023-04-02T04:25:59.105Z,0.00
2023-04-02T04:26:59.103Z,0.00
2023-04-02T04:27:59.103Z,0.00
2023-04-02T04:28:59.075Z,0.00
2023-04-02T04:29:59.055Z,0.00
2023-04-02T04:30:59.091Z,0.00
2023-04-02T04:31:59.051Z,0.00
2023-04-02T04:32:59.075Z,0.00
2023-04-02T04:33:59.011Z,0.00
2023-04-02T04:34:59.005Z,0.00
2023-04-02T04:35:59.124Z,0.00
2023-04-02T04:36:58.986Z,0.00
2023-04-02T04:37:58.953Z,0.00
2023-04-02T04:38:58.965Z,0.00
2023-04-02T04:39:58.946Z,0.00
2023-04-02T04:40:58.943Z,0.00
2023-04-02T04:41:58.926Z,0.00
2023-04-02T04:42:58.919Z,0.00
2023-04-02T04:43:58.897Z,0.00
2023-04-02T04:44:58.853Z,0.00
2023-04-02T04:45:58.887Z,0.00
2023-04-02T04:46:58.815Z,0.00
2023-04-02T04:47:58.851Z,0.00
2023-04-02T04:48:58.814Z,0.00
2023-04-02T04:49:58.837Z,0.00
2023-04-02T04:50:58.837Z,0.00
2023-04-02T04:51:58.772Z,0.00
2023-04-02T04:52:58.820Z,0.00
2023-04-02T04:53:58.793Z,0.00
2023-04-02T04:54:58.788Z,0.00
2023-04-02T04:56:05.928Z,0.00
2023-04-02T04:56:58.747Z,0.00
2023-04-02T04:57:58.695Z,0.00
2023-04-02T04:58:58.684Z,0.00
2023-04-02T04:59:58.707Z,0.00
2023-04-02T05:00:58.721Z,0.00
2023-04-02T05:01:58.677Z,0.00
2023-04-02T05:02:58.703Z,0.00
2023-04-02T05:03:58.627Z,0.00
2023-04-02T05:04:58.672Z,0.00
2023-04-02T05:05:58.604Z,0.00
2023-04-02T05:06:58.593Z,0.00
2023-04-02T05:07:59.758Z,0.00
2023-04-02T05:08:58.570Z,0.00
2023-04-02T05:09:58.554Z,0.00
2023-04-02T05:10:58.554Z,0.00
2023-04-02T05:11:58.548Z,0.00
2023-04-02T05:12:58.555Z,0.00
2023-04-02T05:13:58.567Z,0.00
2023-04-02T05:14:58.502Z,0.00
2023-04-02T05:16:00.081Z,0.00
2023-04-02T05:16:58.488Z,0.00
2023-04-02T05:17:58.485Z,0.00
2023-04-02T05:18:58.470Z,0.00
2023-04-02T05:19:58.444Z,0.00
2023-04-02T05:20:58.450Z,0.00
2023-04-02T05:21:58.422Z,0.00
2023-04-02T05:22:58.418Z,0.00
2023-04-02T05:23:58.409Z,0.00
2023-04-02T05:24:58.393Z,0.00
2023-04-02T05:25:58.387Z,0.00
2023-04-02T05:26:58.408Z,0.00
2023-04-02T05:27:58.361Z,0.00
2023-04-02T05:28:58.357Z,0.00
2023-04-02T05:29:58.331Z,0.00
2023-04-02T05:30:58.359Z,0.00
2023-04-02T05:31:58.310Z,0.00
2023-04-02T05:32:58.324Z,0.00
2023-04-02T05:33:58.324Z,0.00
2023-04-02T05:34:58.314Z,0.00
2023-04-02T05:35:58.287Z,0.00
2023-04-02T05:36:58.264Z,0.00
2023-04-02T05:37:58.251Z,0.00
2023-04-02T05:38:58.255Z,0.00
2023-04-02T05:39:58.235Z,0.00
2023-04-02T05:40:58.220Z,0.00
2023-04-02T05:41:58.222Z,0.00
2023-04-02T05:42:58.206Z,0.00
2023-04-02T05:43:58.235Z,0.00
2023-04-02T05:44:58.185Z,0.00
2023-04-02T05:45:58.165Z,0.00
2023-04-02T05:46:58.200Z,0.00
2023-04-02T05:47:58.201Z,0.00
2023-04-02T05:48:58.131Z,0.00
2023-04-02T05:49:58.121Z,0.00
2023-04-02T05:50:58.134Z,0.00
2023-04-02T05:51:58.106Z,0.00
2023-04-02T05:52:58.098Z,0.00
2023-04-02T05:53:58.085Z,0.00
2023-04-02T05:54:58.096Z,0.00
2023-04-02T05:55:58.060Z,0.00
2023-04-02T05:56:58.088Z,0.00
2023-04-02T05:58:21.455Z,0.00
2023-04-02T05:58:58.320Z,0.00
2023-04-02T05:59:58.043Z,0.00
2023-04-02T06:00:58.001Z,0.00
2023-04-02T06:01:58.020Z,0.00
2023-04-02T06:02:58.038Z,0.00
2023-04-02T06:03:58.008Z,0.00
2023-04-02T06:04:57.965Z,0.00
2023-04-02T06:05:57.952Z,0.00
2023-04-02T06:06:57.958Z,0.00
2023-04-02T06:07:57.934Z,0.00
2023-04-02T06:08:57.916Z,0.00
2023-04-02T06:09:57.947Z,0.00
2023-04-02T06:10:57.915Z,0.00
2023-04-02T06:11:57.933Z,0.00
2023-04-02T06:12:57.879Z,0.00
2023-04-02T06:13:57.873Z,0.00
2023-04-02T06:14:57.869Z,0.00
2023-04-02T06:15:57.962Z,0.00
2023-04-02T06:16:57.939Z,0.00
2023-04-02T06:17:57.865Z,0.00
2023-04-02T06:18:57.810Z,0.00
2023-04-02T06:19:57.805Z,0.00
2023-04-02T06:20:57.794Z,0.00
2023-04-02T06:21:57.792Z,0.00
2023-04-02T06:22:57.787Z,0.00
2023-04-02T06:23:57.761Z,0.00
2023-04-02T06:24:57.757Z,0.00
2023-04-02T06:25:57.739Z,0.00
2023-04-02T06:26:57.730Z,0.00
2023-04-02T06:27:57.726Z,0.00
2023-04-02T06:28:57.718Z,0.00
2023-04-02T06:29:57.722Z,0.00
2023-04-02T06:30:57.738Z,5.62
2023-04-02T06:31:57.686Z,0.00
2023-04-02T06:32:57.823Z,5.62
2023-04-02T06:33:57.657Z,5.62
2023-04-02T06:34:57.650Z,0.00
2023-04-02T06:35:57.655Z,0.00
2023-04-02T06:36:57.640Z,5.62
2023-04-02T06:37:57.708Z,0.00
2023-04-02T06:38:57.601Z,0.00
2023-04-02T06:39:57.620Z,0.00
2023-04-02T06:40:58.740Z,0.00
2023-04-02T06:41:57.575Z,0.00
2023-04-02T06:42:57.580Z,0.00
2023-04-02T06:43:57.556Z,0.00
2023-04-02T06:44:57.539Z,0.00
2023-04-02T06:45:57.556Z,0.00
2023-04-02T06:46:57.517Z,5.62
2023-04-02T06:47:57.570Z,5.62
2023-04-02T06:48:57.499Z,5.62
2023-04-02T06:49:57.500Z,5.62
2023-04-02T06:50:57.556Z,5.62
2023-04-02T06:51:57.469Z,5.62
2023-04-02T06:52:57.473Z,5.62
2023-04-02T06:53:57.447Z,5.62
2023-04-02T06:54:57.471Z,5.62
2023-04-02T06:55:57.430Z,5.62
2023-04-02T06:56:57.420Z,5.62
2023-04-02T06:57:57.424Z,5.62
2023-04-02T06:58:57.398Z,5.62
2023-04-02T06:59:57.410Z,5.62
2023-04-02T07:00:57.390Z,5.62
2023-04-02T07:01:57.509Z,5.62
2023-04-02T07:02:57.402Z,5.62
2023-04-02T07:03:57.374Z,5.62
2023-04-02T07:04:57.383Z,5.62
2023-04-02T07:05:57.381Z,5.62
2023-04-02T07:06:57.302Z,5.62
2023-04-02T07:07:57.331Z,5.62
2023-04-02T07:08:57.296Z,5.62
2023-04-02T07:09:57.270Z,5.62
2023-04-02T07:10:57.269Z,5.62
2023-04-02T07:11:57.266Z,11.25
2023-04-02T07:12:57.243Z,11.25
2023-04-02T07:13:57.224Z,11.25
2023-04-02T07:14:57.210Z,11.25
2023-04-02T07:15:57.364Z,11.25
2023-04-02T07:16:57.219Z,11.25
2023-04-02T07:17:57.299Z,11.25
2023-04-02T07:18:57.177Z,11.25
2023-04-02T07:19:57.160Z,5.62
2023-04-02T07:20:57.166Z,11.25
2023-04-02T07:21:57.151Z,11.25
2023-04-02T07:22:57.130Z,11.25
2023-04-02T07:23:57.145Z,11.25
2023-04-02T07:24:57.105Z,11.25
2023-04-02T07:25:57.132Z,11.25
2023-04-02T07:26:57.106Z,11.25
2023-04-02T07:27:57.082Z,11.25
2023-04-02T07:28:57.084Z,16.88
2023-04-02T07:29:57.057Z,16.88
2023-04-02T07:30:57.044Z,11.25
2023-04-02T07:31:57.188Z,11.25
2023-04-02T07:32:57.141Z,11.25
2023-04-02T07:33:57.066Z,11.25
2023-04-02T07:34:57.002Z,11.25
2023-04-02T07:35:57.035Z,11.25
2023-04-02T07:36:56.972Z,11.25
2023-04-02T07:37:56.995Z,11.25
2023-04-02T07:38:56.965Z,11.25
2023-04-02T07:39:56.988Z,11.25
2023-04-02T07:40:56.957Z,11.25
2023-04-02T07:41:56.960Z,11.25
2023-04-02T07:42:56.934Z,16.88
2023-04-02T07:43:56.923Z,11.25
2023-04-02T07:44:56.911Z,11.25
2023-04-02T07:45:56.890Z,11.25
2023-04-02T07:46:56.940Z,11.25
2023-04-02T07:47:56.917Z,11.25
2023-04-02T07:48:56.850Z,11.25
2023-04-02T07:49:56.874Z,11.25
2023-04-02T07:50:56.826Z,16.88
2023-04-02T07:51:56.836Z,16.88
2023-04-02T07:52:56.801Z,11.25
2023-04-02T07:53:56.802Z,11.25
2023-04-02T07:54:56.807Z,11.25
2023-04-02T07:55:56.784Z,11.25
2023-04-02T07:56:56.794Z,11.25
2023-04-02T07:57:56.784Z,11.25
2023-04-02T07:58:56.738Z,11.25
2023-04-02T07:59:56.773Z,11.25
2023-04-02T08:00:56.732Z,11.25
2023-04-02T08:01:56.784Z,11.25
2023-04-02T08:02:56.866Z,16.88
2023-04-02T08:03:56.835Z,16.88
2023-04-02T08:04:56.688Z,16.88
2023-04-02T08:05:56.688Z,16.88
2023-04-02T08:06:56.667Z,16.88
2023-04-02T08:07:56.806Z,11.25
2023-04-02T08:08:56.643Z,11.25
2023-04-02T08:09:56.653Z,16.88
2023-04-02T08:10:56.618Z,16.88
2023-04-02T08:11:56.642Z,16.88
2023-04-02T08:12:56.617Z,11.25
2023-04-02T08:13:56.592Z,16.88
2023-04-02T08:14:56.600Z,16.88
2023-04-02T08:15:56.607Z,16.88
2023-04-02T08:16:56.804Z,11.25
2023-04-02T08:17:56.617Z,16.88
2023-04-02T08:18:56.571Z,16.88
2023-04-02T08:19:56.545Z,16.88
2023-04-02T08:20:56.527Z,16.88
2023-04-02T08:21:56.543Z,16.88
2023-04-02T08:22:56.501Z,16.88
2023-04-02T08:23:56.517Z,16.88
2023-04-02T08:24:56.487Z,16.88
2023-04-02T08:25:56.476Z,16.88
2023-04-02T08:26:56.455Z,16.88
2023-04-02T08:27:56.444Z,16.88
2023-04-02T08:28:56.443Z,16.88
2023-04-02T08:29:56.473Z,16.88
2023-04-02T08:30:56.423Z,16.88
2023-04-02T08:31:56.410Z,16.88
2023-04-02T08:32:56.431Z,22.50
2023-04-02T08:33:56.390Z,16.88
2023-04-02T08:34:56.366Z,22.50
2023-04-02T08:35:56.395Z,22.50
2023-04-02T08:36:56.349Z,22.50
2023-04-02T08:37:56.333Z,22.50
2023-04-02T08:38:56.333Z,22.50
2023-04-02T08:39:56.326Z,22.50
2023-04-02T08:40:56.332Z,28.12
2023-04-02T08:41:56.294Z,28.12
2023-04-02T08:42:56.353Z,28.12
2023-04-02T08:43:56.298Z,33.75
2023-04-02T08:44:56.273Z,33.75
2023-04-02T08:45:56.295Z,33.75
2023-04-02T08:46:56.230Z,33.75
2023-04-02T08:47:56.535Z,33.75
2023-04-02T08:48:56.220Z,28.12
2023-04-02T08:49:56.247Z,33.75
2023-04-02T08:50:56.201Z,28.12
2023-04-02T08:51:56.188Z,28.12
2023-04-02T08:52:56.184Z,33.75
2023-04-02T08:53:56.189Z,33.75
2023-04-02T08:54:56.170Z,39.38
2023-04-02T08:55:56.154Z,39.38
2023-04-02T08:56:56.240Z,33.75
2023-04-02T08:57:56.155Z,28.12
2023-04-02T08:58:56.109Z,28.12
2023-04-02T08:59:56.142Z,28.12
2023-04-02T09:00:56.087Z,28.12
2023-04-02T09:01:56.203Z,22.50
2023-04-02T09:02:56.122Z,28.12
2023-04-02T09:03:56.053Z,22.50
2023-04-02T09:04:56.085Z,28.12
2023-04-02T09:05:56.051Z,28.12
2023-04-02T09:06:56.046Z,28.12
2023-04-02T09:07:56.026Z,22.50
2023-04-02T09:08:56.001Z,28.12
2023-04-02T09:09:55.998Z,22.50
2023-04-02T09:10:55.995Z,22.50
2023-04-02T09:11:55.981Z,22.50
2023-04-02T09:12:55.981Z,28.12
2023-04-02T09:13:55.954Z,28.12
2023-04-02T09:14:55.935Z,28.12
2023-04-02T09:15:55.987Z,28.12
2023-04-02T09:16:55.937Z,28.12
2023-04-02T09:17:57.041Z,28.12
2023-04-02T09:18:55.911Z,33.75
2023-04-02T09:19:55.908Z,39.38
2023-04-02T09:20:55.871Z,33.75
2023-04-02T09:21:55.873Z,39.38
2023-04-02T09:22:55.867Z,33.75
2023-04-02T09:23:55.841Z,28.12
2023-04-02T09:24:55.822Z,33.75
2023-04-02T09:26:04.081Z,33.75
2023-04-02T09:26:55.812Z,33.75
2023-04-02T09:27:55.844Z,33.75
2023-04-02T09:28:55.809Z,28.12
2023-04-02T09:29:55.774Z,28.12
2023-04-02T09:30:55.773Z,28.12
2023-04-02T09:31:56.350Z,28.12
2023-04-02T09:32:55.786Z,28.12
2023-04-02T09:33:55.742Z,28.12
2023-04-02T09:34:55.729Z,33.75
2023-04-02T09:35:55.742Z,33.75
2023-04-02T09:36:55.704Z,28.12
2023-04-02T09:37:55.696Z,28.12
2023-04-02T09:38:55.722Z,28.12
2023-04-02T09:39:55.768Z,28.12
2023-04-02T09:40:55.672Z,28.12
2023-04-02T09:42:05.058Z,33.75
2023-04-02T09:42:55.642Z,28.12
2023-04-02T09:43:55.640Z,28.12
2023-04-02T09:44:55.651Z,28.12
2023-04-02T09:45:55.606Z,33.75
2023-04-02T09:46:55.673Z,33.75
2023-04-02T09:47:55.619Z,39.38
2023-04-02T09:48:55.589Z,39.38
2023-04-02T09:49:55.617Z,33.75
2023-04-02T09:50:55.562Z,33.75
2023-04-02T09:51:55.553Z,33.75
2023-04-02T09:52:55.531Z,33.75
2023-04-02T09:53:55.562Z,33.75
2023-04-02T09:54:55.514Z,33.75
2023-04-02T09:55:55.549Z,33.75
2023-04-02T09:56:55.532Z,33.75
2023-04-02T09:57:55.479Z,39.38
2023-04-02T09:58:55.464Z,39.38
2023-04-02T09:59:55.466Z,33.75
2023-04-02T10:00:55.488Z,33.75
2023-04-02T10:01:55.426Z,33.75
2023-04-02T10:02:55.490Z,33.75
2023-04-02T10:03:55.516Z,39.38
2023-04-02T10:04:55.398Z,39.38
2023-04-02T10:05:55.391Z,39.38
2023-04-02T10:06:55.397Z,39.38
2023-04-02T10:07:55.374Z,45.00
2023-04-02T10:08:55.370Z,45.00
2023-04-02T10:09:55.365Z,33.75
2023-04-02T10:10:55.349Z,28.12
2023-04-02T10:11:55.318Z,33.75
2023-04-02T10:12:55.315Z,39.38
2023-04-02T10:13:55.315Z,39.38
2023-04-02T10:14:55.296Z,39.38
2023-04-02T10:15:55.281Z,33.75
2023-04-02T10:16:55.312Z,33.75
2023-04-02T10:17:55.322Z,39.38
2023-04-02T10:18:55.261Z,39.38
2023-04-02T10:19:55.240Z,33.75
2023-04-02T10:20:55.237Z,45.00
2023-04-02T10:21:55.221Z,45.00
2023-04-02T10:22:55.208Z,39.38
2023-04-02T10:23:55.258Z,33.75
2023-04-02T10:24:55.213Z,33.75
2023-04-02T10:25:55.172Z,33.75
2023-04-02T10:27:01.636Z,33.75
2023-04-02T10:27:55.152Z,33.75
2023-04-02T10:28:55.171Z,33.75
2023-04-02T10:29:55.133Z,33.75
2023-04-02T10:30:55.160Z,33.75
2023-04-02T10:31:55.131Z,33.75
2023-04-02T10:32:55.134Z,39.38
2023-04-02T10:33:55.088Z,39.38
2023-04-02T10:34:55.083Z,33.75
2023-04-02T10:35:55.103Z,33.75
2023-04-02T10:36:55.118Z,33.75
2023-04-02T10:37:55.048Z,33.75
2023-04-02T10:38:55.084Z,39.38
2023-04-02T10:39:55.044Z,39.38
2023-04-02T10:40:56.902Z,39.38
2023-04-02T10:41:55.018Z,39.38
2023-04-02T10:42:55.063Z,39.38
2023-04-02T10:43:54.997Z,39.38
2023-04-02T10:44:54.983Z,39.38
2023-04-02T10:45:54.966Z,39.38
2023-04-02T10:46:54.964Z,39.38
2023-04-02T10:47:54.986Z,39.38
2023-04-02T10:48:54.936Z,39.38
2023-04-02T10:49:54.946Z,39.38
2023-04-02T10:50:54.914Z,39.38
2023-04-02T10:51:54.952Z,39.38
2023-04-02T10:52:56.509Z,33.75
2023-04-02T10:53:54.986Z,33.75
2023-04-02T10:54:54.872Z,33.75
2023-04-02T10:55:54.876Z,33.75
2023-04-02T10:56:54.914Z,39.38
2023-04-02T10:57:54.842Z,39.38
2023-04-02T10:58:56.815Z,45.00
2023-04-02T10:59:54.811Z,50.62
2023-04-02T11:00:54.807Z,50.62
2023-04-02T11:01:54.823Z,45.00
2023-04-02T11:02:54.837Z,45.00
2023-04-02T11:03:57.071Z,45.00
2023-04-02T11:04:56.707Z,45.00
2023-04-02T11:05:54.768Z,50.62
2023-04-02T11:07:07.307Z,50.62
2023-04-02T11:07:54.744Z,50.62
2023-04-02T11:08:54.731Z,50.62
2023-04-02T11:09:54.711Z,45.00
2023-04-02T11:10:54.730Z,45.00
2023-04-02T11:11:54.700Z,45.00
2023-04-02T11:12:54.693Z,45.00
2023-04-02T11:13:54.665Z,50.62
2023-04-02T11:14:54.665Z,45.00
2023-04-02T11:15:54.679Z,45.00
2023-04-02T11:16:54.666Z,39.38
2023-04-02T11:17:54.677Z,45.00
2023-04-02T11:18:54.615Z,45.00
2023-04-02T11:19:54.611Z,45.00
2023-04-02T11:20:54.613Z,45.00
2023-04-02T11:21:59.295Z,45.00
2023-04-02T11:22:54.579Z,50.62
2023-04-02T11:23:54.567Z,50.62
2023-04-02T11:24:54.616Z,50.62
2023-04-02T11:25:54.556Z,50.62
2023-04-02T11:26:54.538Z,50.62
2023-04-02T11:27:54.525Z,50.62
2023-04-02T11:28:54.512Z,45.00
2023-04-02T11:29:54.513Z,45.00
2023-04-02T11:30:54.497Z,39.38
2023-04-02T11:31:54.657Z,45.00
2023-04-02T11:32:54.514Z,45.00
2023-04-02T11:33:54.478Z,45.00
2023-04-02T11:35:05.878Z,45.00
2023-04-02T11:35:54.465Z,45.00
2023-04-02T11:36:54.426Z,45.00
2023-04-02T11:37:54.449Z,45.00
2023-04-02T11:38:57.621Z,45.00
2023-04-02T11:39:54.404Z,50.62
2023-04-02T11:40:54.381Z,50.62
2023-04-02T11:41:54.366Z,50.62
2023-04-02T11:42:54.375Z,50.62
2023-04-02T11:43:54.344Z,50.62
2023-04-02T11:44:54.349Z,45.00
2023-04-02T11:45:54.703Z,45.00
2023-04-02T11:46:54.346Z,50.62
2023-04-02T11:47:54.341Z,50.62
2023-04-02T11:48:54.296Z,50.62
2023-04-02T11:49:54.286Z,50.62
2023-04-02T11:50:54.289Z,50.62
2023-04-02T11:51:59.380Z,50.62
2023-04-02T11:52:54.281Z,45.00
2023-04-02T11:53:54.254Z,45.00
2023-04-02T11:54:54.236Z,45.00
2023-04-02T11:55:54.217Z,45.00
2023-04-02T11:56:54.314Z,45.00
2023-04-02T11:57:54.192Z,50.62
2023-04-02T11:58:54.189Z,50.62
2023-04-02T11:59:54.184Z,45.00
2023-04-02T12:00:54.165Z,45.00
2023-04-02T12:01:54.188Z,45.00
2023-04-02T12:02:54.200Z,45.00
2023-04-02T12:03:54.139Z,45.00
2023-04-02T12:04:54.157Z,45.00
2023-04-02T12:05:54.117Z,45.00
2023-04-02T12:06:54.163Z,45.00
2023-04-02T12:07:54.105Z,45.00
2023-04-02T12:08:57.970Z,45.00
2023-04-02T12:09:54.070Z,45.00
2023-04-02T12:10:54.065Z,39.38
2023-04-02T12:11:54.052Z,39.38
2023-04-02T12:12:54.040Z,39.38
2023-04-02T12:13:54.030Z,39.38
2023-04-02T12:14:54.029Z,39.38
2023-04-02T12:15:54.056Z,39.38
2023-04-02T12:16:54.037Z,33.75
2023-04-02T12:17:54.041Z,33.75
2023-04-02T12:18:54.120Z,39.38
2023-04-02T12:19:53.981Z,39.38
2023-04-02T12:20:53.949Z,39.38
2023-04-02T12:21:53.945Z,33.75
2023-04-02T12:22:53.946Z,33.75
2023-04-02T12:23:53.920Z,33.75
2023-04-02T12:24:53.914Z,33.75
2023-04-02T12:25:53.895Z,33.75
2023-04-02T12:26:53.900Z,33.75
2023-04-02T12:27:53.873Z,33.75
2023-04-02T12:28:53.879Z,33.75
2023-04-02T12:29:53.855Z,33.75
2023-04-02T12:30:53.930Z,33.75
2023-04-02T12:31:53.847Z,33.75
2023-04-02T12:32:53.858Z,33.75
2023-04-02T12:33:54.511Z,33.75
2023-04-02T12:34:53.811Z,39.38
2023-04-02T12:35:53.898Z,39.38
2023-04-02T12:36:53.794Z,39.38
2023-04-02T12:37:53.774Z,39.38
2023-04-02T12:38:53.760Z,39.38
2023-04-02T12:39:53.742Z,39.38
2023-04-02T12:40:53.753Z,39.38
2023-04-02T12:41:53.722Z,39.38
2023-04-02T12:42:53.720Z,39.38
2023-04-02T12:43:53.703Z,45.00
2023-04-02T12:44:53.697Z,45.00
2023-04-02T12:45:53.723Z,39.38
2023-04-02T12:46:53.699Z,39.38
2023-04-02T12:47:53.707Z,39.38
2023-04-02T12:48:53.663Z,39.38
2023-04-02T12:49:53.673Z,39.38
2023-04-02T12:50:53.635Z,33.75
2023-04-02T12:51:53.624Z,33.75
2023-04-02T12:52:53.628Z,33.75
2023-04-02T12:53:53.615Z,33.75
2023-04-02T12:54:53.591Z,33.75
2023-04-02T12:55:53.576Z,28.12
2023-04-02T12:56:54.375Z,28.12
2023-04-02T12:57:53.549Z,28.12
2023-04-02T12:58:53.563Z,33.75
2023-04-02T12:59:53.533Z,33.75
2023-04-02T13:00:53.523Z,33.75
2023-04-02T13:01:53.582Z,33.75
2023-04-02T13:02:53.547Z,33.75
2023-04-02T13:03:53.548Z,39.38
2023-04-02T13:04:53.491Z,45.00
2023-04-02T13:05:53.464Z,45.00
2023-04-02T13:06:53.465Z,50.62
2023-04-02T13:07:53.442Z,50.62